Time;durP1;ratioP1;P1;durP2;ratioP2;P2;SDS_P1;SDS_P2;PMS_P1;PMS_P2;Temp;Humidity;BMP_temperature;BMP_pressure;BME280_temperature;BME280_humidity;BME280_pressure;Samples;Min_cycle;Max_cycle;Signal;HPM_P1;HPM_P2
2022/08/25 00:01:15;;;;;;;3.80;1.98;;;;;;;;;;5031304;28;20022;-83
2022/08/25 00:03:41;;;;;;;6.00;1.60;;;;;;;;;;5031789;28;20504;-83
2022/08/25 00:06:07;;;;;;;3.67;2.20;;;;;;;;;;5031611;28;20049;-84
2022/08/25 00:08:33;;;;;;;10.10;2.33;;;;;;;;;;5027089;28;20025;-84
2022/08/25 00:10:59;;;;;;;6.20;2.00;;;;;;;;;;5028025;28;20044;-84
2022/08/25 00:13:24;;;;;;;3.78;1.77;;;;;;;;;;5028641;28;20441;-84
2022/08/25 00:15:50;;;;;;;6.13;1.93;;;;;;;;;;5027610;28;20021;-84
2022/08/25 00:18:15;;;;;;;5.37;2.10;;;;;;;;;;5026487;28;20848;-84
2022/08/25 00:20:40;;;;;;;4.40;2.00;;;;;;;;;;5029563;28;20268;-84
2022/08/25 00:23:05;;;;;;;2.67;1.83;;;;;;;;;;5029627;28;20326;-84
2022/08/25 00:25:31;;;;;;;2.73;2.07;;;;;;;;;;5030887;28;20014;-84
2022/08/25 00:27:57;;;;;;;5.75;1.90;;;;;;;;;;5029194;28;20829;-84
2022/08/25 00:30:22;;;;;;;14.45;2.28;;;;;;;;;;5030079;28;20027;-84
2022/08/25 00:32:48;;;;;;;6.67;2.40;;;;;;;;;;5029581;28;20108;-83
2022/08/25 00:35:13;;;;;;;7.15;1.70;;;;;;;;;;5031868;28;20021;-84
2022/08/25 00:37:38;;;;;;;7.68;1.98;;;;;;;;;;5029447;28;20113;-83
2022/08/25 00:40:04;;;;;;;4.80;2.05;;;;;;;;;;5028531;28;20029;-84
2022/08/25 00:42:30;;;;;;;2.95;1.83;;;;;;;;;;5029164;28;20021;-83
2022/08/25 00:44:55;;;;;;;3.92;2.00;;;;;;;;;;5031083;28;20048;-84
2022/08/25 00:47:20;;;;;;;8.00;2.13;;;;;;;;;;5031326;28;20492;-83
2022/08/25 00:49:52;;;;;;;4.23;2.23;;;;;;;;;;5029485;28;20028;-84
2022/08/25 00:52:20;;;;;;;3.63;2.22;;;;;;;;;;5028586;28;20369;-84
2022/08/25 00:55:21;;;;;;;7.20;2.20;;;;;;;;;;5030440;28;20017;-84
2022/08/25 00:57:51;;;;;;;3.58;2.03;;;;;;;;;;4952265;28;20026;-83
2022/08/25 01:00:36;;;;;;;6.07;1.85;;;;;;;;;;5014852;28;20117;-83
2022/08/25 01:03:03;;;;;;;5.60;2.20;;;;;;;;;;5028019;28;20037;-84
2022/08/25 01:05:29;;;;;;;6.60;2.30;;;;;;;;;;5030911;28;20539;-84
2022/08/25 01:07:58;;;;;;;5.28;1.95;;;;;;;;;;5029392;28;20673;-84
2022/08/25 01:10:23;;;;;;;3.88;1.85;;;;;;;;;;5029762;28;20021;-84
2022/08/25 01:12:49;;;;;;;4.47;2.28;;;;;;;;;;5026238;28;20669;-84
2022/08/25 01:15:14;;;;;;;3.35;2.00;;;;;;;;;;5028261;28;20389;-84
2022/08/25 01:17:47;;;;;;;5.13;2.42;;;;;;;;;;5030045;28;20026;-84
2022/08/25 01:20:13;;;;;;;5.78;2.42;;;;;;;;;;5032437;28;20033;-84
2022/08/25 01:22:38;;;;;;;7.57;2.15;;;;;;;;;;5029776;28;20029;-84
2022/08/25 01:25:11;;;;;;;4.05;2.05;;;;;;;;;;5030126;28;20491;-83
2022/08/25 01:27:36;;;;;;;6.38;1.98;;;;;;;;;;5027901;28;20052;-83
2022/08/25 01:30:01;;;;;;;3.73;2.13;;;;;;;;;;5025969;28;20021;-84
2022/08/25 01:32:27;;;;;;;5.22;2.28;;;;;;;;;;5025354;28;20272;-84
2022/08/25 01:34:52;;;;;;;8.17;2.53;;;;;;;;;;5027898;28;20032;-84
2022/08/25 01:37:18;;;;;;;4.75;2.22;;;;;;;;;;5026772;28;20279;-84
2022/08/25 01:39:43;;;;;;;7.22;2.20;;;;;;;;;;5028172;28;20056;-83
2022/08/25 01:42:17;;;;;;;3.45;1.90;;;;;;;;;;5023710;28;20032;-83
2022/08/25 01:44:43;;;;;;;3.42;1.98;;;;;;;;;;5026482;28;20018;-84
2022/08/25 01:47:09;;;;;;;6.00;2.63;;;;;;;;;;5027530;28;20018;-83
2022/08/25 01:49:35;;;;;;;6.28;1.80;;;;;;;;;;5027187;28;20051;-84
2022/08/25 01:52:06;;;;;;;3.60;2.20;;;;;;;;;;5028187;28;20171;-84
2022/08/25 01:54:32;;;;;;;4.20;1.85;;;;;;;;;;5025273;28;20033;-84
2022/08/25 01:56:58;;;;;;;6.95;2.20;;;;;;;;;;5027894;28;20021;-84
2022/08/25 01:59:23;;;;;;;7.10;2.42;;;;;;;;;;5028226;28;20076;-83
2022/08/25 02:01:48;;;;;;;3.53;2.33;;;;;;;;;;5027240;28;20044;-84
2022/08/25 02:04:13;;;;;;;3.77;2.20;;;;;;;;;;5029616;28;20389;-84
2022/08/25 02:06:39;;;;;;;3.90;2.07;;;;;;;;;;5027058;28;20731;-84
2022/08/25 02:09:07;;;;;;;4.75;1.83;;;;;;;;;;5037271;28;20240;-84
2022/08/25 02:11:34;;;;;;;4.32;2.40;;;;;;;;;;5040267;28;20029;-83
2022/08/25 02:14:00;;;;;;;4.28;2.22;;;;;;;;;;5043558;28;20021;-84
2022/08/25 02:16:27;;;;;;;8.32;2.50;;;;;;;;;;5030812;28;20524;-84
2022/08/25 02:18:53;;;;;;;7.95;2.35;;;;;;;;;;5024778;28;20049;-84
2022/08/25 02:21:18;;;;;;;3.45;2.22;;;;;;;;;;5027162;28;20064;-84
2022/08/25 02:23:43;;;;;;;8.57;2.45;;;;;;;;;;5028938;28;20021;-84
2022/08/25 02:26:09;;;;;;;3.83;2.33;;;;;;;;;;5026287;28;20506;-83
2022/08/25 02:28:35;;;;;;;3.80;2.50;;;;;;;;;;5028844;28;20033;-84
2022/08/25 02:31:00;;;;;;;5.53;2.70;;;;;;;;;;5027349;28;20017;-83
2022/08/25 02:33:25;;;;;;;5.57;2.20;;;;;;;;;;5028504;28;20504;-84
2022/08/25 02:35:51;;;;;;;5.30;2.55;;;;;;;;;;5024536;28;20276;-84
2022/08/25 02:38:17;;;;;;;3.75;2.30;;;;;;;;;;5026997;28;20021;-84
2022/08/25 02:40:42;;;;;;;4.45;2.20;;;;;;;;;;5026361;28;20032;-84
2022/08/25 02:43:07;;;;;;;3.17;2.15;;;;;;;;;;5024176;28;20025;-84
2022/08/25 02:45:33;;;;;;;4.97;2.78;;;;;;;;;;5026734;28;20029;-84
2022/08/25 02:47:58;;;;;;;4.65;2.60;;;;;;;;;;5026208;28;20037;-84
2022/08/25 02:50:24;;;;;;;4.28;2.45;;;;;;;;;;5023917;28;20022;-84
2022/08/25 02:52:50;;;;;;;11.23;3.08;;;;;;;;;;5024581;28;20035;-84
2022/08/25 02:55:16;;;;;;;6.55;2.63;;;;;;;;;;5025238;28;20408;-84
2022/08/25 02:57:41;;;;;;;8.30;2.13;;;;;;;;;;5028113;28;20044;-84
2022/08/25 03:00:08;;;;;;;8.95;2.80;;;;;;;;;;5027610;28;20033;-84
2022/08/25 03:02:33;;;;;;;4.68;2.45;;;;;;;;;;5026557;28;20086;-84
2022/08/25 03:04:59;;;;;;;4.97;2.50;;;;;;;;;;5027768;28;20434;-84
2022/08/25 03:07:24;;;;;;;4.10;2.50;;;;;;;;;;5025201;28;20037;-84
2022/08/25 03:09:49;;;;;;;6.07;2.30;;;;;;;;;;5026769;28;20310;-84
2022/08/25 03:12:15;;;;;;;8.10;2.77;;;;;;;;;;5026264;28;20021;-83
2022/08/25 03:14:40;;;;;;;4.85;2.13;;;;;;;;;;5026533;28;20348;-84
2022/08/25 03:17:06;;;;;;;3.60;2.40;;;;;;;;;;5027230;28;20104;-84
2022/08/25 03:19:31;;;;;;;9.82;2.83;;;;;;;;;;5027016;28;20497;-84
2022/08/25 03:21:58;;;;;;;7.20;2.73;;;;;;;;;;5025222;28;20017;-84
2022/08/25 03:24:23;;;;;;;5.50;2.50;;;;;;;;;;5026454;28;20272;-84
2022/08/25 03:26:55;;;;;;;5.65;2.65;;;;;;;;;;5026231;28;20028;-84
2022/08/25 03:29:28;;;;;;;5.28;2.40;;;;;;;;;;5027067;28;20059;-84
2022/08/25 03:31:54;;;;;;;7.47;2.85;;;;;;;;;;5027619;28;20014;-84
2022/08/25 03:34:20;;;;;;;4.82;2.90;;;;;;;;;;5026278;28;20017;-84
2022/08/25 03:36:46;;;;;;;9.15;2.60;;;;;;;;;;5025654;28;20021;-84
2022/08/25 03:39:12;;;;;;;8.50;2.70;;;;;;;;;;5024534;28;20432;-84
2022/08/25 03:41:38;;;;;;;6.03;3.00;;;;;;;;;;5022403;28;20018;-85
2022/08/25 03:44:04;;;;;;;3.95;2.63;;;;;;;;;;5026498;28;20029;-84
2022/08/25 03:46:30;;;;;;;7.55;3.05;;;;;;;;;;5027549;28;20493;-84
2022/08/25 03:48:56;;;;;;;17.80;2.85;;;;;;;;;;5025759;28;20112;-84
2022/08/25 03:51:23;;;;;;;8.85;3.17;;;;;;;;;;5023518;28;20805;-84
2022/08/25 03:53:48;;;;;;;4.00;2.60;;;;;;;;;;5027307;28;20021;-84
2022/08/25 03:56:13;;;;;;;6.70;3.50;;;;;;;;;;5020087;28;20021;-85
2022/08/25 03:58:38;;;;;;;5.32;2.90;;;;;;;;;;5016626;28;20035;-84
2022/08/25 04:01:04;;;;;;;5.28;2.80;;;;;;;;;;5019818;28;20026;-84
2022/08/25 04:03:29;;;;;;;10.45;3.20;;;;;;;;;;5021693;28;20021;-83
2022/08/25 04:05:55;;;;;;;5.10;2.60;;;;;;;;;;5026628;28;20022;-84
2022/08/25 04:08:21;;;;;;;5.82;3.17;;;;;;;;;;5028204;28;20843;-84
2022/08/25 04:10:46;;;;;;;7.38;3.78;;;;;;;;;;5024375;28;20044;-83
2022/08/25 04:13:12;;;;;;;4.70;3.20;;;;;;;;;;5025224;28;20219;-84
2022/08/25 04:15:40;;;;;;;7.15;3.45;;;;;;;;;;5027269;28;20060;-84
2022/08/25 04:18:06;;;;;;;10.85;3.63;;;;;;;;;;5030363;28;20021;-83
2022/08/25 04:20:31;;;;;;;6.47;3.17;;;;;;;;;;5029496;28;20501;-83
2022/08/25 04:22:59;;;;;;;4.97;3.10;;;;;;;;;;5030502;28;20284;-84
2022/08/25 04:25:24;;;;;;;5.28;3.20;;;;;;;;;;5028332;28;20280;-84
2022/08/25 04:27:50;;;;;;;4.77;3.40;;;;;;;;;;5030964;28;20092;-83
2022/08/25 04:30:15;;;;;;;8.13;3.17;;;;;;;;;;5025669;28;20367;-84
2022/08/25 04:32:40;;;;;;;8.37;3.37;;;;;;;;;;5028673;28;20030;-84
2022/08/25 04:35:06;;;;;;;10.57;3.53;;;;;;;;;;5031045;28;20260;-84
2022/08/25 04:37:32;;;;;;;10.38;3.63;;;;;;;;;;5029931;28;20027;-84
2022/08/25 04:39:57;;;;;;;10.35;3.75;;;;;;;;;;5028195;28;20029;-84
2022/08/25 04:42:22;;;;;;;5.18;3.45;;;;;;;;;;5030456;28;20041;-84
2022/08/25 04:44:48;;;;;;;6.65;4.00;;;;;;;;;;5031158;28;20017;-84
2022/08/25 04:47:14;;;;;;;7.82;3.60;;;;;;;;;;5028865;28;20108;-84
2022/08/25 04:49:39;;;;;;;6.72;4.30;;;;;;;;;;5029115;28;20041;-83
2022/08/25 04:52:04;;;;;;;6.83;3.43;;;;;;;;;;5029175;28;20743;-84
2022/08/25 04:54:29;;;;;;;13.05;4.20;;;;;;;;;;5027617;28;20307;-84
2022/08/25 04:56:55;;;;;;;7.97;3.63;;;;;;;;;;5030586;28;20048;-84
2022/08/25 04:59:20;;;;;;;5.73;3.27;;;;;;;;;;5030774;28;20514;-82
2022/08/25 05:01:45;;;;;;;13.10;3.92;;;;;;;;;;5029942;28;20260;-83
2022/08/25 05:04:13;;;;;;;10.13;4.35;;;;;;;;;;5027889;28;20013;-84
2022/08/25 05:06:38;;;;;;;10.23;4.22;;;;;;;;;;5027398;28;20044;-82
2022/08/25 05:09:04;;;;;;;10.73;4.00;;;;;;;;;;5027841;28;20629;-84
2022/08/25 05:11:29;;;;;;;7.72;3.92;;;;;;;;;;5025653;28;20117;-83
2022/08/25 05:13:55;;;;;;;10.20;4.22;;;;;;;;;;5026706;28;20481;-83
2022/08/25 05:16:22;;;;;;;6.90;3.47;;;;;;;;;;5027211;28;20553;-84
2022/08/25 05:18:47;;;;;;;9.88;3.15;;;;;;;;;;5027340;28;20029;-83
2022/08/25 05:21:14;;;;;;;9.98;3.28;;;;;;;;;;5027008;28;20112;-83
2022/08/25 05:23:39;;;;;;;10.63;3.42;;;;;;;;;;5027722;28;20025;-83
2022/08/25 05:26:16;;;;;;;5.95;3.80;;;;;;;;;;5027216;28;20025;-82
2022/08/25 05:28:42;;;;;;;5.68;3.80;;;;;;;;;;5028967;28;20048;-84
2022/08/25 05:31:08;;;;;;;10.25;3.85;;;;;;;;;;5028582;28;20473;-81
2022/08/25 05:33:34;;;;;;;11.27;3.55;;;;;;;;;;5028650;28;20021;-83
2022/08/25 05:35:59;;;;;;;8.18;4.72;;;;;;;;;;5029299;28;20021;-82
2022/08/25 05:38:25;;;;;;;9.32;4.03;;;;;;;;;;5025733;28;20022;-83
2022/08/25 05:41:01;;;;;;;14.25;4.40;;;;;;;;;;5029277;28;20749;-83
2022/08/25 05:43:27;;;;;;;5.85;3.83;;;;;;;;;;5029030;28;20117;-82
2022/08/25 05:45:53;;;;;;;6.45;3.72;;;;;;;;;;5028128;28;20104;-84
2022/08/25 05:48:19;;;;;;;13.65;3.22;;;;;;;;;;5029759;28;20018;-84
2022/08/25 05:50:57;;;;;;;11.67;3.67;;;;;;;;;;5027676;28;20521;-84
2022/08/25 05:53:23;;;;;;;8.02;3.80;;;;;;;;;;5026076;28;20279;-84
2022/08/25 05:55:49;;;;;;;7.25;3.88;;;;;;;;;;5027219;28;20025;-84
2022/08/25 05:58:15;;;;;;;6.25;3.80;;;;;;;;;;5028436;28;20089;-84
2022/08/25 06:00:40;;;;;;;9.37;4.10;;;;;;;;;;5028221;28;20038;-84
2022/08/25 06:03:05;;;;;;;6.03;3.63;;;;;;;;;;5027712;28;20660;-83
2022/08/25 06:05:31;;;;;;;9.93;3.22;;;;;;;;;;5029676;28;20763;-83
2022/08/25 06:07:57;;;;;;;8.70;4.18;;;;;;;;;;5028195;28;20072;-83
2022/08/25 06:10:22;;;;;;;7.80;3.90;;;;;;;;;;5026329;28;20148;-84
2022/08/25 06:12:47;;;;;;;8.07;3.42;;;;;;;;;;5026905;28;20021;-82
2022/08/25 06:15:14;;;;;;;10.00;3.53;;;;;;;;;;5028889;28;20556;-84
2022/08/25 06:17:41;;;;;;;11.52;3.78;;;;;;;;;;5028975;28;20100;-84
2022/08/25 06:20:08;;;;;;;9.15;4.07;;;;;;;;;;5026201;28;20493;-83
2022/08/25 06:22:33;;;;;;;7.10;4.03;;;;;;;;;;5021256;28;20056;-83
2022/08/25 06:24:58;;;;;;;6.80;4.22;;;;;;;;;;5026045;28;20377;-84
2022/08/25 06:27:23;;;;;;;9.13;3.30;;;;;;;;;;5024791;28;20100;-83
2022/08/25 06:29:49;;;;;;;10.65;4.05;;;;;;;;;;5023366;28;20357;-83
2022/08/25 06:32:14;;;;;;;11.65;4.20;;;;;;;;;;5023472;28;20049;-83
2022/08/25 06:34:39;;;;;;;9.17;3.47;;;;;;;;;;5026909;28;20075;-84
2022/08/25 06:37:04;;;;;;;11.00;4.03;;;;;;;;;;5023253;28;20275;-83
2022/08/25 06:39:30;;;;;;;8.20;4.05;;;;;;;;;;5027556;28;20291;-84
2022/08/25 06:41:55;;;;;;;11.00;3.95;;;;;;;;;;5023816;28;20024;-83
2022/08/25 06:44:21;;;;;;;8.27;4.50;;;;;;;;;;5024045;28;20524;-82
2022/08/25 06:46:47;;;;;;;5.28;3.60;;;;;;;;;;5023922;28;20105;-82
2022/08/25 06:49:12;;;;;;;5.70;3.55;;;;;;;;;;5026805;28;20052;-84
2022/08/25 06:51:38;;;;;;;13.05;4.05;;;;;;;;;;5057504;23;20553;-68
2022/08/25 06:54:04;;;;;;;11.25;4.00;;;;;;;;;;5067305;28;20024;-68
2022/08/25 06:56:29;;;;;;;10.02;4.32;;;;;;;;;;5069396;28;20111;-69
2022/08/25 06:58:54;;;;;;;9.50;4.00;;;;;;;;;;5069208;28;20112;-69
2022/08/25 07:01:22;;;;;;;5.57;4.03;;;;;;;;;;5068518;28;20021;-69
2022/08/25 07:03:48;;;;;;;12.07;3.95;;;;;;;;;;5070474;28;20021;-69
2022/08/25 07:06:13;;;;;;;10.38;4.82;;;;;;;;;;5068430;28;20025;-67
2022/08/25 07:08:39;;;;;;;6.28;3.80;;;;;;;;;;5068857;28;20509;-70
2022/08/25 07:11:05;;;;;;;5.27;3.60;;;;;;;;;;5069252;28;20021;-71
2022/08/25 07:13:30;;;;;;;6.75;3.92;;;;;;;;;;5063577;28;20286;-72
2022/08/25 07:15:56;;;;;;;10.40;4.40;;;;;;;;;;5065590;28;20012;-67
2022/08/25 07:18:21;;;;;;;9.90;4.20;;;;;;;;;;5068999;28;20663;-71
2022/08/25 07:20:46;;;;;;;7.78;3.88;;;;;;;;;;5070142;28;20259;-70
2022/08/25 07:23:12;;;;;;;5.30;3.92;;;;;;;;;;5069142;28;20020;-71
2022/08/25 07:25:37;;;;;;;4.53;3.57;;;;;;;;;;5069647;28;20086;-71
2022/08/25 07:28:03;;;;;;;5.10;3.67;;;;;;;;;;5069089;28;20427;-71
2022/08/25 07:30:28;;;;;;;10.98;4.10;;;;;;;;;;5068828;28;20270;-71
2022/08/25 07:32:53;;;;;;;7.40;3.65;;;;;;;;;;5069011;28;20024;-70
2022/08/25 07:35:19;;;;;;;8.03;3.73;;;;;;;;;;5070022;28;20758;-69
2022/08/25 07:37:47;;;;;;;8.30;4.05;;;;;;;;;;5069867;28;20024;-71
2022/08/25 07:40:13;;;;;;;6.82;3.72;;;;;;;;;;5069439;28;20024;-71
2022/08/25 07:42:39;;;;;;;6.55;3.45;;;;;;;;;;5069590;28;20070;-70
2022/08/25 07:45:05;;;;;;;11.52;3.78;;;;;;;;;;5069043;28;20516;-69
2022/08/25 07:47:30;;;;;;;7.47;3.13;;;;;;;;;;5069284;28;20020;-69
2022/08/25 07:49:56;;;;;;;11.00;4.25;;;;;;;;;;5073371;28;20021;-71
2022/08/25 07:52:21;;;;;;;6.75;4.00;;;;;;;;;;5073997;28;20051;-71
2022/08/25 07:54:46;;;;;;;6.20;3.43;;;;;;;;;;5071938;28;20021;-70
2022/08/25 07:57:11;;;;;;;4.30;3.07;;;;;;;;;;5073790;28;20426;-69
2022/08/25 07:59:40;;;;;;;9.03;4.43;;;;;;;;;;5071719;28;20008;-71
2022/08/25 08:02:06;;;;;;;5.27;3.73;;;;;;;;;;5073299;28;20049;-71
2022/08/25 08:04:34;;;;;;;5.35;3.65;;;;;;;;;;5071589;28;20342;-71
2022/08/25 08:06:59;;;;;;;9.30;3.47;;;;;;;;;;5073782;28;20368;-72
2022/08/25 08:09:24;;;;;;;7.47;4.03;;;;;;;;;;5073245;28;20020;-71
2022/08/25 08:11:50;;;;;;;6.27;3.63;;;;;;;;;;5071242;28;20017;-70
2022/08/25 08:14:15;;;;;;;4.20;3.17;;;;;;;;;;5073272;28;20031;-71
2022/08/25 08:16:41;;;;;;;6.28;3.45;;;;;;;;;;5071814;28;20540;-71
2022/08/25 08:19:06;;;;;;;6.77;3.50;;;;;;;;;;5073330;28;20028;-71
2022/08/25 08:21:32;;;;;;;6.82;3.38;;;;;;;;;;5071988;28;20708;-71
2022/08/25 08:23:58;;;;;;;7.53;3.58;;;;;;;;;;5073177;28;20424;-71
2022/08/25 08:26:24;;;;;;;6.57;3.65;;;;;;;;;;5072217;28;20021;-71
2022/08/25 08:28:50;;;;;;;6.38;3.50;;;;;;;;;;5072749;28;20031;-71
2022/08/25 08:31:18;;;;;;;6.97;3.72;;;;;;;;;;5072833;28;20013;-71
2022/08/25 08:33:44;;;;;;;4.22;3.40;;;;;;;;;;5072753;28;20023;-71
2022/08/25 08:36:10;;;;;;;5.05;3.20;;;;;;;;;;5081166;28;20024;-70
2022/08/25 08:38:36;;;;;;;11.95;3.70;;;;;;;;;;5079724;28;20035;-71
2022/08/25 08:44:14;;;;;;;4.13;2.53;;;;;;;;;;5071255;28;20135;-71
2022/08/25 08:46:56;;;;;;;7.13;3.30;;;;;;;;;;5074818;28;20032;-71
2022/08/25 08:49:26;;;;;;;8.75;3.65;;;;;;;;;;5076811;28;20105;-67
2022/08/25 08:51:54;;;;;;;5.75;3.00;;;;;;;;;;5075959;28;20028;-71
2022/08/25 08:54:23;;;;;;;6.13;3.92;;;;;;;;;;5072610;28;20016;-70
2022/08/25 08:56:54;;;;;;;8.45;3.47;;;;;;;;;;5070328;28;20028;-71
2022/08/25 08:59:21;;;;;;;5.90;3.05;;;;;;;;;;5071239;28;20099;-71
2022/08/25 09:01:58;;;;;;;7.68;3.70;;;;;;;;;;5072041;28;20028;-71
2022/08/25 09:04:36;;;;;;;4.43;3.20;;;;;;;;;;5072371;28;20023;-70
2022/08/25 09:07:03;;;;;;;10.70;3.45;;;;;;;;;;5075560;28;20061;-71
2022/08/25 09:09:29;;;;;;;6.88;3.53;;;;;;;;;;5076298;28;20020;-71
2022/08/25 09:12:00;;;;;;;5.75;2.97;;;;;;;;;;5071697;28;20472;-71
2022/08/25 09:14:28;;;;;;;6.15;3.25;;;;;;;;;;5078468;28;20046;-71
2022/08/25 09:17:03;;;;;;;5.95;3.70;;;;;;;;;;5078173;28;20029;-71
2022/08/25 09:19:35;;;;;;;6.57;3.42;;;;;;;;;;5077646;28;20484;-70
2022/08/25 09:22:05;;;;;;;1.83;1.40;;;;;;;;;;5068309;28;20115;-70
2022/08/25 09:24:47;;;;;;;6.57;3.08;;;;;;;;;;5068483;28;20019;-68
2022/08/25 09:27:51;;;;;;;9.38;3.33;;;;;;;;;;5070505;28;20061;-70
2022/08/25 09:30:17;;;;;;;5.88;3.20;;;;;;;;;;4987051;28;20038;-68
2022/08/25 09:32:46;;;;;;;4.28;3.10;;;;;;;;;;4985941;28;20026;-71
2022/08/25 09:35:25;;;;;;;7.65;3.63;;;;;;;;;;5024725;28;20599;-71
2022/08/25 09:38:09;;;;;;;5.22;3.35;;;;;;;;;;5077684;28;20593;-72
2022/08/25 09:40:37;;;;;;;7.95;3.17;;;;;;;;;;5075005;28;20060;-68
2022/08/25 09:43:07;;;;;;;5.90;3.33;;;;;;;;;;5074101;28;20017;-71
2022/08/25 09:45:36;;;;;;;4.53;2.05;;;;;;;;;;5076505;28;20025;-71
2022/08/25 09:48:01;;;;;;;6.72;3.17;;;;;;;;;;5068066;28;20032;-71
2022/08/25 09:50:30;;;;;;;7.15;3.00;;;;;;;;;;5070258;28;20076;-71
2022/08/25 09:53:09;;;;;;;6.22;3.22;;;;;;;;;;5067951;28;20346;-68
2022/08/25 09:55:34;;;;;;;3.30;2.47;;;;;;;;;;5075729;28;20028;-69
2022/08/25 09:57:59;;;;;;;6.05;3.22;;;;;;;;;;5070740;28;20662;-69
2022/08/25 10:00:27;;;;;;;4.90;2.05;;;;;;;;;;5070037;28;20480;-71
2022/08/25 10:03:11;;;;;;;4.75;3.05;;;;;;;;;;5076793;28;20029;-71
2022/08/25 10:05:38;;;;;;;4.95;3.20;;;;;;;;;;5070917;28;20032;-71
2022/08/25 10:08:11;;;;;;;5.65;2.85;;;;;;;;;;5077617;28;20024;-69
2022/08/25 10:10:39;;;;;;;6.28;2.88;;;;;;;;;;5072923;28;20082;-69
2022/08/25 10:13:11;;;;;;;9.07;3.40;;;;;;;;;;5076233;28;20489;-70
2022/08/25 10:15:37;;;;;;;3.00;2.70;;;;;;;;;;5078689;28;20085;-71
2022/08/25 10:18:14;;;;;;;4.53;2.60;;;;;;;;;;5073842;28;20472;-70
2022/08/25 10:20:40;;;;;;;4.22;2.38;;;;;;;;;;5078832;28;20031;-71
2022/08/25 10:23:11;;;;;;;8.25;3.20;;;;;;;;;;5075943;28;20024;-71
2022/08/25 10:25:41;;;;;;;6.32;3.15;;;;;;;;;;5076414;28;20020;-71
2022/08/25 10:28:12;;;;;;;3.65;2.70;;;;;;;;;;5073671;28;20036;-69
2022/08/25 10:30:56;;;;;;;6.90;3.65;;;;;;;;;;5070283;28;20035;-71
2022/08/25 10:33:40;;;;;;;4.53;2.90;;;;;;;;;;5074744;28;20058;-68
2022/08/25 10:36:05;;;;;;;3.63;3.10;;;;;;;;;;5070475;28;20028;-69
2022/08/25 10:38:36;;;;;;;5.55;3.00;;;;;;;;;;5070523;28;20512;-71
2022/08/25 10:41:21;;;;;;;2.78;1.90;;;;;;;;;;5074847;28;20083;-71
2022/08/25 10:43:46;;;;;;;3.95;2.38;;;;;;;;;;5071413;28;20396;-71
2022/08/25 10:46:30;;;;;;;8.00;3.10;;;;;;;;;;5071051;28;20017;-70
2022/08/25 10:49:01;;;;;;;6.75;3.13;;;;;;;;;;5069043;28;20013;-71
2022/08/25 10:51:39;;;;;;;4.03;2.55;;;;;;;;;;5072612;28;20029;-71
2022/08/25 10:54:09;;;;;;;5.10;3.03;;;;;;;;;;5070520;28;20028;-71
2022/08/25 10:56:36;;;;;;;4.35;2.92;;;;;;;;;;5068954;28;20020;-71
2022/08/25 10:59:03;;;;;;;5.43;2.83;;;;;;;;;;5076824;28;20442;-71
2022/08/25 11:01:28;;;;;;;8.52;2.63;;;;;;;;;;5069930;28;20073;-71
2022/08/25 11:03:54;;;;;;;4.03;2.72;;;;;;;;;;5070954;28;20029;-71
2022/08/25 11:06:22;;;;;;;3.22;2.55;;;;;;;;;;5070574;28;20096;-70
2022/08/25 11:08:50;;;;;;;3.40;2.60;;;;;;;;;;5069942;28;20016;-71
2022/08/25 11:11:24;;;;;;;6.43;3.08;;;;;;;;;;5072252;28;20020;-71
2022/08/25 11:13:53;;;;;;;5.07;3.00;;;;;;;;;;5076919;28;20035;-71
2022/08/25 11:16:23;;;;;;;2.50;1.98;;;;;;;;;;5071740;28;20021;-71
2022/08/25 11:19:07;;;;;;;7.63;3.05;;;;;;;;;;5065437;28;20540;-70
2022/08/25 11:21:43;;;;;;;4.10;2.78;;;;;;;;;;5072219;28;20028;-72
2022/08/25 11:24:20;;;;;;;5.97;3.58;;;;;;;;;;5069692;28;20337;-71
2022/08/25 11:26:50;;;;;;;5.00;2.45;;;;;;;;;;5072293;28;20963;-71
2022/08/25 11:29:16;;;;;;;4.63;3.20;;;;;;;;;;5066530;28;20012;-71
2022/08/25 11:31:44;;;;;;;5.45;2.83;;;;;;;;;;5072521;28;20032;-69
2022/08/25 11:34:13;;;;;;;4.60;3.13;;;;;;;;;;5072913;28;20024;-72
2022/08/25 11:36:40;;;;;;;8.15;3.30;;;;;;;;;;5077542;28;20020;-72
2022/08/25 11:39:24;;;;;;;5.38;3.50;;;;;;;;;;5077126;28;20067;-71
2022/08/25 11:41:55;;;;;;;5.70;2.95;;;;;;;;;;5078308;28;20446;-71
2022/08/25 11:44:34;;;;;;;5.03;3.15;;;;;;;;;;5075539;28;20056;-68
2022/08/25 11:46:59;;;;;;;7.73;2.60;;;;;;;;;;5078217;28;20023;-70
2022/08/25 11:49:25;;;;;;;6.40;3.72;;;;;;;;;;5069366;28;20016;-71
2022/08/25 11:51:50;;;;;;;5.90;3.70;;;;;;;;;;5056942;28;20150;-71
2022/08/25 11:54:23;;;;;;;6.25;3.22;;;;;;;;;;5075903;28;20034;-70
2022/08/25 11:57:02;;;;;;;4.20;2.58;;;;;;;;;;5071904;28;20016;-72
2022/08/25 11:59:48;;;;;;;4.53;2.15;;;;;;;;;;5069480;28;20200;-71
2022/08/25 12:02:31;;;;;;;4.60;3.33;;;;;;;;;;5073168;28;20013;-72
2022/08/25 12:04:57;;;;;;;8.73;3.47;;;;;;;;;;5070269;28;20043;-72
2022/08/25 12:07:26;;;;;;;4.97;2.90;;;;;;;;;;5069581;28;20024;-70
2022/08/25 12:09:52;;;;;;;;;;;;;;;;;;5068707;28;20028;-72
2022/08/25 12:12:36;;;;;;;7.53;4.00;;;;;;;;;;5070276;28;19914;-70
2022/08/25 12:15:20;;;;;;;8.60;3.85;;;;;;;;;;5069688;28;20028;-72
2022/08/25 12:18:05;;;;;;;7.40;3.50;;;;;;;;;;5077593;28;20031;-71
2022/08/25 12:20:49;;;;;;;7.57;3.35;;;;;;;;;;5075203;28;20485;-72
2022/08/25 12:23:14;;;;;;;6.78;3.20;;;;;;;;;;5074758;28;20029;-68
2022/08/25 12:25:43;;;;;;;8.93;3.33;;;;;;;;;;5074276;28;20020;-71
2022/08/25 12:28:22;;;;;;;5.55;3.10;;;;;;;;;;5072169;28;20012;-72
2022/08/25 12:30:56;;;;;;;6.07;3.22;;;;;;;;;;5076716;28;20099;-68
2022/08/25 12:33:33;;;;;;;5.78;3.40;;;;;;;;;;5062081;28;20032;-71
2022/08/25 12:36:10;;;;;;;20.17;4.00;;;;;;;;;;5070935;28;20112;-72
2022/08/25 12:38:43;;;;;;;8.98;3.90;;;;;;;;;;5075776;28;20059;-69
2022/08/25 12:41:12;;;;;;;5.00;2.97;;;;;;;;;;5069917;28;20145;-69
2022/08/25 12:43:39;;;;;;;3.97;3.20;;;;;;;;;;5070301;28;20060;-70
2022/08/25 12:46:25;;;;;;;5.30;3.83;;;;;;;;;;5075189;28;20142;-71
2022/08/25 12:48:59;;;;;;;6.32;3.35;;;;;;;;;;5051048;28;20036;-67
2022/08/25 12:51:43;;;;;;;7.75;3.83;;;;;;;;;;5075282;28;20027;-72
2022/08/25 12:54:15;;;;;;;5.43;3.83;;;;;;;;;;5072481;28;20023;-72
2022/08/25 12:56:42;;;;;;;6.47;3.63;;;;;;;;;;5069893;28;20024;-71
2022/08/25 12:59:11;;;;;;;6.70;3.63;;;;;;;;;;5069861;28;20590;-68
2022/08/25 13:01:42;;;;;;;2.53;1.88;;;;;;;;;;5073863;28;20024;-71
2022/08/25 13:04:10;;;;;;;6.57;3.58;;;;;;;;;;5099409;22;20052;-65
2022/08/25 13:06:58;;;;;;;6.45;4.03;;;;;;;;;;5092502;28;20028;-67
2022/08/25 13:09:23;;;;;;;6.47;3.92;;;;;;;;;;5078776;28;20135;-67
2022/08/25 13:11:53;;;;;;;4.90;3.73;;;;;;;;;;5090150;28;20099;-67
2022/08/25 13:14:24;;;;;;;5.40;3.53;;;;;;;;;;5090123;28;20392;-67
2022/08/25 13:16:54;;;;;;;8.30;3.30;;;;;;;;;;5085955;28;20028;-67
2022/08/25 13:19:19;;;;;;;8.80;3.60;;;;;;;;;;5083261;28;20046;-67
2022/08/25 13:21:45;;;;;;;10.02;3.60;;;;;;;;;;5070368;28;20028;-67
2022/08/25 13:24:13;;;;;;;5.50;3.50;;;;;;;;;;5083075;28;20389;-67
2022/08/25 13:26:39;;;;;;;5.38;3.10;;;;;;;;;;5080081;28;20043;-67
2022/08/25 13:29:09;;;;;;;4.97;3.17;;;;;;;;;;5088433;28;20491;-67
2022/08/25 13:31:37;;;;;;;4.70;3.22;;;;;;;;;;5085087;28;20028;-67
2022/08/25 13:34:06;;;;;;;5.25;3.15;;;;;;;;;;5080917;28;20600;-67
2022/08/25 13:39:25;;;;;;;9.02;3.13;;;;;;;;;;5084423;28;20035;-67
2022/08/25 13:41:52;;;;;;;6.80;3.40;;;;;;;;;;5087647;28;20020;-67
2022/08/25 13:44:19;;;;;;;5.13;2.97;;;;;;;;;;5085360;28;20023;-67
2022/08/25 13:46:45;;;;;;;4.35;3.03;;;;;;;;;;5079493;28;20044;-67
2022/08/25 13:49:12;;;;;;;4.80;3.13;;;;;;;;;;5091310;28;20015;-67
2022/08/25 13:51:38;;;;;;;10.55;3.20;;;;;;;;;;5081624;28;20103;-67
2022/08/25 13:54:05;;;;;;;6.60;3.22;;;;;;;;;;5082183;28;20028;-67
2022/08/25 13:56:31;;;;;;;8.80;3.47;;;;;;;;;;5084582;28;20044;-67
2022/08/25 13:58:57;;;;;;;4.70;3.22;;;;;;;;;;5083468;28;20422;-67
2022/08/25 14:01:24;;;;;;;5.90;3.25;;;;;;;;;;5078181;28;20036;-67
2022/08/25 14:03:51;;;;;;;6.05;3.38;;;;;;;;;;5075487;28;20039;-67
2022/08/25 14:06:16;;;;;;;11.35;3.10;;;;;;;;;;5084592;28;20019;-67
2022/08/25 14:08:43;;;;;;;7.33;2.93;;;;;;;;;;5079998;28;20399;-67
2022/08/25 14:11:29;;;;;;;6.60;3.28;;;;;;;;;;5077853;28;20456;-67
2022/08/25 14:14:02;;;;;;;6.40;2.75;;;;;;;;;;5083967;28;20163;-68
2022/08/25 14:16:30;;;;;;;3.63;2.65;;;;;;;;;;5087354;28;20028;-68
2022/08/25 14:18:56;;;;;;;8.32;3.33;;;;;;;;;;5082483;28;20020;-68
2022/08/25 14:21:23;;;;;;;8.82;3.38;;;;;;;;;;5077995;28;20389;-68
2022/08/25 14:23:48;;;;;;;4.53;2.83;;;;;;;;;;5079366;28;20028;-68
2022/08/25 14:26:14;;;;;;;5.95;2.78;;;;;;;;;;5082504;28;20027;-68
2022/08/25 14:28:39;;;;;;;7.97;2.80;;;;;;;;;;5083635;28;20048;-68
2022/08/25 14:31:07;;;;;;;5.00;2.72;;;;;;;;;;5085761;28;20034;-68
2022/08/25 14:33:34;;;;;;;6.57;3.17;;;;;;;;;;5088293;28;20024;-68
2022/08/25 14:36:01;;;;;;;4.00;3.05;;;;;;;;;;5074195;28;20115;-68
2022/08/25 14:38:26;;;;;;;5.53;2.72;;;;;;;;;;5084099;28;20480;-68
2022/08/25 14:40:52;;;;;;;8.97;3.00;;;;;;;;;;5078648;28;20120;-68
2022/08/25 14:43:17;;;;;;;4.13;3.17;;;;;;;;;;5071758;28;20031;-68
2022/08/25 14:45:44;;;;;;;7.75;2.88;;;;;;;;;;5075803;28;20028;-68
2022/08/25 14:48:13;;;;;;;5.55;2.72;;;;;;;;;;5079284;28;20328;-68
2022/08/25 14:50:39;;;;;;;7.05;3.05;;;;;;;;;;5077548;28;20427;-68
2022/08/25 14:53:04;;;;;;;3.50;2.78;;;;;;;;;;5086640;28;20056;-68